Terminal Aerodrome Forecast
Issued by NWS Sterling, VA

Current Version | Previous Version | Graphics & Text | Print | Product List | Glossary Off
Versions: 1 2 3 4 5 6 7 8 9 10 11 12 13 14 15 16 17 18 19 20 21

111
FTUS41 KLWX 100524
TAFDCA
TAF
KDCA 100524Z 1006/1106 29010KT P6SM FEW150
     FM101400 30012G17KT P6SM SCT150
     FM110100 31005KT P6SM FEW150=

USA.gov is the U.S. government's official web portal to all federal, state and local government web resources and services.